sensor_id;sensor_type;location;lat;lon;timestamp;P1;durP1;ratioP1;P2;durP2;ratioP2
66425;SDS011;53237;46.158;14.604;2023-02-10T00:01:52;43.78;;;25.20;;
66425;SDS011;53237;46.158;14.604;2023-02-10T00:04:18;41.80;;;24.40;;
66425;SDS011;53237;46.158;14.604;2023-02-10T00:06:44;43.00;;;26.35;;
66425;SDS011;53237;46.158;14.604;2023-02-10T00:09:11;42.83;;;25.10;;
66425;SDS011;53237;46.158;14.604;2023-02-10T00:11:41;41.10;;;24.65;;
66425;SDS011;53237;46.158;14.604;2023-02-10T00:14:23;39.90;;;25.13;;
66425;SDS011;53237;46.158;14.604;2023-02-10T00:16:50;39.00;;;23.70;;
66425;SDS011;53237;46.158;14.604;2023-02-10T00:19:16;35.38;;;23.25;;
66425;SDS011;53237;46.158;14.604;2023-02-10T00:21:42;37.63;;;23.30;;
66425;SDS011;53237;46.158;14.604;2023-02-10T00:24:08;37.95;;;22.23;;
66425;SDS011;53237;46.158;14.604;2023-02-10T00:26:34;33.05;;;21.73;;
66425;SDS011;53237;46.158;14.604;2023-02-10T00:29:00;34.28;;;21.00;;
66425;SDS011;53237;46.158;14.604;2023-02-10T00:31:26;33.35;;;20.35;;
66425;SDS011;53237;46.158;14.604;2023-02-10T00:33:53;33.47;;;20.85;;
66425;SDS011;53237;46.158;14.604;2023-02-10T00:36:19;28.00;;;18.40;;
66425;SDS011;53237;46.158;14.604;2023-02-10T00:38:46;31.48;;;19.52;;
66425;SDS011;53237;46.158;14.604;2023-02-10T00:41:16;29.83;;;18.27;;
66425;SDS011;53237;46.158;14.604;2023-02-10T00:43:42;27.65;;;17.30;;
66425;SDS011;53237;46.158;14.604;2023-02-10T00:46:09;29.90;;;17.75;;
66425;SDS011;53237;46.158;14.604;2023-02-10T00:48:35;29.13;;;19.13;;
66425;SDS011;53237;46.158;14.604;2023-02-10T00:51:02;26.80;;;17.60;;
66425;SDS011;53237;46.158;14.604;2023-02-10T00:53:28;28.75;;;19.05;;
66425;SDS011;53237;46.158;14.604;2023-02-10T00:55:54;25.08;;;16.45;;
66425;SDS011;53237;46.158;14.604;2023-02-10T00:58:20;29.40;;;18.63;;
66425;SDS011;53237;46.158;14.604;2023-02-10T01:00:47;30.67;;;19.05;;
66425;SDS011;53237;46.158;14.604;2023-02-10T01:03:13;27.95;;;18.20;;
66425;SDS011;53237;46.158;14.604;2023-02-10T01:05:39;27.60;;;17.15;;
66425;SDS011;53237;46.158;14.604;2023-02-10T01:08:05;27.52;;;17.92;;
66425;SDS011;53237;46.158;14.604;2023-02-10T01:10:32;29.23;;;17.35;;
66425;SDS011;53237;46.158;14.604;2023-02-10T01:13:00;29.70;;;18.67;;
66425;SDS011;53237;46.158;14.604;2023-02-10T01:15:26;27.27;;;18.30;;
66425;SDS011;53237;46.158;14.604;2023-02-10T01:17:52;33.08;;;18.00;;
66425;SDS011;53237;46.158;14.604;2023-02-10T01:20:18;32.15;;;19.75;;
66425;SDS011;53237;46.158;14.604;2023-02-10T01:22:44;32.40;;;21.13;;
66425;SDS011;53237;46.158;14.604;2023-02-10T01:25:10;29.20;;;18.80;;
66425;SDS011;53237;46.158;14.604;2023-02-10T01:27:36;29.38;;;19.38;;
66425;SDS011;53237;46.158;14.604;2023-02-10T01:30:02;26.45;;;18.38;;
66425;SDS011;53237;46.158;14.604;2023-02-10T01:32:28;29.60;;;18.92;;
66425;SDS011;53237;46.158;14.604;2023-02-10T01:34:55;29.90;;;18.80;;
66425;SDS011;53237;46.158;14.604;2023-02-10T01:37:21;28.38;;;18.80;;
66425;SDS011;53237;46.158;14.604;2023-02-10T01:39:47;30.35;;;18.80;;
66425;SDS011;53237;46.158;14.604;2023-02-10T01:42:13;29.75;;;19.38;;
66425;SDS011;53237;46.158;14.604;2023-02-10T01:47:05;26.85;;;17.15;;
66425;SDS011;53237;46.158;14.604;2023-02-10T01:49:33;26.73;;;17.35;;
66425;SDS011;53237;46.158;14.604;2023-02-10T01:54:30;30.75;;;17.90;;
66425;SDS011;53237;46.158;14.604;2023-02-10T01:56:56;27.55;;;17.83;;
66425;SDS011;53237;46.158;14.604;2023-02-10T01:59:22;26.25;;;17.55;;
66425;SDS011;53237;46.158;14.604;2023-02-10T02:01:51;25.17;;;17.05;;
66425;SDS011;53237;46.158;14.604;2023-02-10T02:04:17;26.77;;;16.67;;
66425;SDS011;53237;46.158;14.604;2023-02-10T02:06:43;27.98;;;17.27;;
66425;SDS011;53237;46.158;14.604;2023-02-10T02:09:11;26.60;;;16.23;;
66425;SDS011;53237;46.158;14.604;2023-02-10T02:24:21;28.15;;;17.95;;
66425;SDS011;53237;46.158;14.604;2023-02-10T02:35:23;29.05;;;17.77;;
66425;SDS011;53237;46.158;14.604;2023-02-10T02:37:29;28.85;;;18.20;;
66425;SDS011;53237;46.158;14.604;2023-02-10T02:39:55;31.63;;;19.40;;
66425;SDS011;53237;46.158;14.604;2023-02-10T02:42:26;33.95;;;19.60;;
66425;SDS011;53237;46.158;14.604;2023-02-10T02:45:14;29.20;;;19.40;;
66425;SDS011;53237;46.158;14.604;2023-02-10T02:47:56;31.25;;;20.58;;
66425;SDS011;53237;46.158;14.604;2023-02-10T03:00:38;38.22;;;22.10;;
66425;SDS011;53237;46.158;14.604;2023-02-10T03:03:05;36.83;;;22.30;;
66425;SDS011;53237;46.158;14.604;2023-02-10T03:05:32;38.13;;;21.60;;
66425;SDS011;53237;46.158;14.604;2023-02-10T03:07:58;43.80;;;22.73;;
66425;SDS011;53237;46.158;14.604;2023-02-10T03:10:24;40.63;;;22.33;;
66425;SDS011;53237;46.158;14.604;2023-02-10T03:12:50;38.70;;;22.02;;
66425;SDS011;53237;46.158;14.604;2023-02-10T03:15:16;38.58;;;22.20;;
66425;SDS011;53237;46.158;14.604;2023-02-10T03:17:42;37.28;;;22.45;;
66425;SDS011;53237;46.158;14.604;2023-02-10T03:20:08;36.53;;;22.58;;
66425;SDS011;53237;46.158;14.604;2023-02-10T03:22:34;37.42;;;21.88;;
66425;SDS011;53237;46.158;14.604;2023-02-10T03:25:01;36.35;;;22.00;;
66425;SDS011;53237;46.158;14.604;2023-02-10T03:27:27;40.53;;;22.90;;
66425;SDS011;53237;46.158;14.604;2023-02-10T03:29:52;37.00;;;22.25;;
66425;SDS011;53237;46.158;14.604;2023-02-10T03:32:19;41.05;;;22.75;;
66425;SDS011;53237;46.158;14.604;2023-02-10T03:34:45;39.35;;;23.33;;
66425;SDS011;53237;46.158;14.604;2023-02-10T03:37:11;40.53;;;23.08;;
66425;SDS011;53237;46.158;14.604;2023-02-10T03:39:37;40.50;;;22.98;;
66425;SDS011;53237;46.158;14.604;2023-02-10T03:42:04;40.95;;;22.65;;
66425;SDS011;53237;46.158;14.604;2023-02-10T03:44:30;37.03;;;21.70;;
66425;SDS011;53237;46.158;14.604;2023-02-10T03:46:56;38.22;;;23.23;;
66425;SDS011;53237;46.158;14.604;2023-02-10T03:49:22;33.67;;;20.85;;
66425;SDS011;53237;46.158;14.604;2023-02-10T03:51:48;34.45;;;21.50;;
66425;SDS011;53237;46.158;14.604;2023-02-10T03:54:14;33.40;;;20.65;;
66425;SDS011;53237;46.158;14.604;2023-02-10T03:56:40;32.05;;;20.13;;
66425;SDS011;53237;46.158;14.604;2023-02-10T03:59:06;35.00;;;20.65;;
66425;SDS011;53237;46.158;14.604;2023-02-10T04:01:32;33.03;;;19.35;;
66425;SDS011;53237;46.158;14.604;2023-02-10T04:03:59;32.30;;;19.80;;
66425;SDS011;53237;46.158;14.604;2023-02-10T04:06:25;28.92;;;18.65;;
66425;SDS011;53237;46.158;14.604;2023-02-10T04:08:51;31.52;;;20.05;;
66425;SDS011;53237;46.158;14.604;2023-02-10T04:11:17;29.33;;;18.88;;
66425;SDS011;53237;46.158;14.604;2023-02-10T04:13:44;31.38;;;19.27;;
66425;SDS011;53237;46.158;14.604;2023-02-10T04:16:11;32.95;;;20.05;;
66425;SDS011;53237;46.158;14.604;2023-02-10T04:18:38;30.63;;;19.52;;
66425;SDS011;53237;46.158;14.604;2023-02-10T04:21:05;31.15;;;19.48;;
66425;SDS011;53237;46.158;14.604;2023-02-10T04:23:32;28.48;;;19.17;;
66425;SDS011;53237;46.158;14.604;2023-02-10T04:25:58;30.25;;;19.73;;
66425;SDS011;53237;46.158;14.604;2023-02-10T04:28:24;27.25;;;18.58;;
66425;SDS011;53237;46.158;14.604;2023-02-10T04:30:54;33.08;;;21.67;;
66425;SDS011;53237;46.158;14.604;2023-02-10T04:33:21;32.95;;;21.80;;
66425;SDS011;53237;46.158;14.604;2023-02-10T04:35:47;28.67;;;20.52;;
66425;SDS011;53237;46.158;14.604;2023-02-10T04:38:14;31.30;;;20.95;;
66425;SDS011;53237;46.158;14.604;2023-02-10T04:40:40;33.42;;;21.50;;
66425;SDS011;53237;46.158;14.604;2023-02-10T04:43:07;34.33;;;21.92;;
66425;SDS011;53237;46.158;14.604;2023-02-10T04:45:33;33.33;;;21.20;;
66425;SDS011;53237;46.158;14.604;2023-02-10T04:47:59;33.22;;;21.45;;
66425;SDS011;53237;46.158;14.604;2023-02-10T04:50:25;33.88;;;21.77;;
66425;SDS011;53237;46.158;14.604;2023-02-10T04:52:51;33.95;;;21.80;;
66425;SDS011;53237;46.158;14.604;2023-02-10T04:55:17;33.03;;;21.20;;
66425;SDS011;53237;46.158;14.604;2023-02-10T04:57:43;32.22;;;20.70;;
66425;SDS011;53237;46.158;14.604;2023-02-10T05:00:09;33.72;;;21.20;;
66425;SDS011;53237;46.158;14.604;2023-02-10T05:02:35;30.58;;;19.90;;
66425;SDS011;53237;46.158;14.604;2023-02-10T05:05:01;30.75;;;19.52;;
66425;SDS011;53237;46.158;14.604;2023-02-10T05:07:27;29.40;;;19.63;;
66425;SDS011;53237;46.158;14.604;2023-02-10T05:09:53;32.15;;;20.30;;
66425;SDS011;53237;46.158;14.604;2023-02-10T05:12:19;32.47;;;19.98;;
66425;SDS011;53237;46.158;14.604;2023-02-10T05:14:46;29.08;;;18.48;;
66425;SDS011;53237;46.158;14.604;2023-02-10T05:17:11;28.40;;;18.10;;
66425;SDS011;53237;46.158;14.604;2023-02-10T05:19:38;26.48;;;17.73;;
66425;SDS011;53237;46.158;14.604;2023-02-10T05:22:04;27.02;;;17.42;;
66425;SDS011;53237;46.158;14.604;2023-02-10T05:24:30;27.95;;;17.63;;
66425;SDS011;53237;46.158;14.604;2023-02-10T05:26:57;29.70;;;18.20;;
66425;SDS011;53237;46.158;14.604;2023-02-10T05:29:23;28.20;;;18.10;;
66425;SDS011;53237;46.158;14.604;2023-02-10T05:31:49;31.10;;;19.67;;
66425;SDS011;53237;46.158;14.604;2023-02-10T05:34:15;32.97;;;21.48;;
66425;SDS011;53237;46.158;14.604;2023-02-10T05:36:41;30.75;;;20.45;;
66425;SDS011;53237;46.158;14.604;2023-02-10T05:39:09;31.50;;;20.35;;
66425;SDS011;53237;46.158;14.604;2023-02-10T05:41:51;29.17;;;19.13;;
66425;SDS011;53237;46.158;14.604;2023-02-10T05:44:17;34.00;;;20.02;;
66425;SDS011;53237;46.158;14.604;2023-02-10T05:46:44;32.03;;;19.67;;
66425;SDS011;53237;46.158;14.604;2023-02-10T05:49:10;30.55;;;19.35;;
66425;SDS011;53237;46.158;14.604;2023-02-10T05:51:36;29.38;;;19.10;;
66425;SDS011;53237;46.158;14.604;2023-02-10T05:54:02;33.85;;;20.20;;
66425;SDS011;53237;46.158;14.604;2023-02-10T05:56:28;30.33;;;19.48;;
66425;SDS011;53237;46.158;14.604;2023-02-10T05:58:54;30.90;;;19.60;;
66425;SDS011;53237;46.158;14.604;2023-02-10T06:01:20;27.52;;;18.50;;
66425;SDS011;53237;46.158;14.604;2023-02-10T06:03:46;31.10;;;19.65;;
66425;SDS011;53237;46.158;14.604;2023-02-10T06:06:12;33.53;;;19.63;;
66425;SDS011;53237;46.158;14.604;2023-02-10T06:08:39;30.30;;;19.55;;
66425;SDS011;53237;46.158;14.604;2023-02-10T06:11:05;28.50;;;18.90;;
66425;SDS011;53237;46.158;14.604;2023-02-10T06:13:31;30.95;;;18.42;;
66425;SDS011;53237;46.158;14.604;2023-02-10T06:15:57;31.77;;;18.95;;
66425;SDS011;53237;46.158;14.604;2023-02-10T06:18:23;31.67;;;19.20;;
66425;SDS011;53237;46.158;14.604;2023-02-10T06:20:49;31.52;;;17.80;;
66425;SDS011;53237;46.158;14.604;2023-02-10T06:23:18;32.85;;;19.80;;
66425;SDS011;53237;46.158;14.604;2023-02-10T06:25:45;38.40;;;21.30;;
66425;SDS011;53237;46.158;14.604;2023-02-10T06:28:11;34.47;;;20.52;;
66425;SDS011;53237;46.158;14.604;2023-02-10T06:30:39;37.88;;;23.52;;
66425;SDS011;53237;46.158;14.604;2023-02-10T06:33:05;39.45;;;26.02;;
66425;SDS011;53237;46.158;14.604;2023-02-10T06:35:31;42.83;;;27.15;;
66425;SDS011;53237;46.158;14.604;2023-02-10T06:37:57;45.15;;;27.35;;
66425;SDS011;53237;46.158;14.604;2023-02-10T06:40:23;42.38;;;27.15;;
66425;SDS011;53237;46.158;14.604;2023-02-10T06:42:50;47.95;;;29.23;;
66425;SDS011;53237;46.158;14.604;2023-02-10T06:45:16;42.38;;;26.45;;
66425;SDS011;53237;46.158;14.604;2023-02-10T06:47:42;42.95;;;27.02;;
66425;SDS011;53237;46.158;14.604;2023-02-10T06:50:08;45.78;;;26.73;;
66425;SDS011;53237;46.158;14.604;2023-02-10T06:52:34;41.10;;;26.88;;
66425;SDS011;53237;46.158;14.604;2023-02-10T06:55:03;45.15;;;27.20;;
66425;SDS011;53237;46.158;14.604;2023-02-10T06:57:29;46.20;;;28.63;;
66425;SDS011;53237;46.158;14.604;2023-02-10T06:59:55;48.30;;;28.20;;
66425;SDS011;53237;46.158;14.604;2023-02-10T07:02:23;44.97;;;27.23;;
66425;SDS011;53237;46.158;14.604;2023-02-10T07:04:49;43.03;;;28.15;;
66425;SDS011;53237;46.158;14.604;2023-02-10T07:07:15;46.95;;;28.02;;
66425;SDS011;53237;46.158;14.604;2023-02-10T07:09:41;47.42;;;28.10;;
66425;SDS011;53237;46.158;14.604;2023-02-10T07:12:07;41.33;;;27.30;;
66425;SDS011;53237;46.158;14.604;2023-02-10T07:14:33;46.10;;;27.42;;
66425;SDS011;53237;46.158;14.604;2023-02-10T07:16:59;45.70;;;29.00;;
66425;SDS011;53237;46.158;14.604;2023-02-10T07:19:25;51.00;;;31.17;;
66425;SDS011;53237;46.158;14.604;2023-02-10T07:21:52;51.88;;;30.08;;
66425;SDS011;53237;46.158;14.604;2023-02-10T07:24:18;43.40;;;28.77;;
66425;SDS011;53237;46.158;14.604;2023-02-10T07:26:44;47.58;;;29.33;;
66425;SDS011;53237;46.158;14.604;2023-02-10T07:29:10;45.30;;;30.23;;
66425;SDS011;53237;46.158;14.604;2023-02-10T07:31:36;52.60;;;32.10;;
66425;SDS011;53237;46.158;14.604;2023-02-10T07:34:02;54.50;;;35.67;;
66425;SDS011;53237;46.158;14.604;2023-02-10T07:36:28;68.95;;;40.95;;
66425;SDS011;53237;46.158;14.604;2023-02-10T07:38:54;56.13;;;36.47;;
66425;SDS011;53237;46.158;14.604;2023-02-10T07:41:20;58.83;;;35.20;;
66425;SDS011;53237;46.158;14.604;2023-02-10T07:43:46;52.90;;;32.97;;
66425;SDS011;53237;46.158;14.604;2023-02-10T07:46:12;55.38;;;33.83;;
66425;SDS011;53237;46.158;14.604;2023-02-10T07:48:40;53.17;;;34.10;;
66425;SDS011;53237;46.158;14.604;2023-02-10T07:51:06;53.45;;;33.67;;
66425;SDS011;53237;46.158;14.604;2023-02-10T07:53:32;50.60;;;33.58;;
66425;SDS011;53237;46.158;14.604;2023-02-10T07:55:58;49.22;;;32.40;;
66425;SDS011;53237;46.158;14.604;2023-02-10T07:58:25;50.85;;;32.80;;
66425;SDS011;53237;46.158;14.604;2023-02-10T08:00:51;48.58;;;30.58;;
66425;SDS011;53237;46.158;14.604;2023-02-10T08:03:17;45.53;;;29.52;;
66425;SDS011;53237;46.158;14.604;2023-02-10T08:05:43;45.35;;;29.92;;
66425;SDS011;53237;46.158;14.604;2023-02-10T08:08:12;50.75;;;30.85;;
66425;SDS011;53237;46.158;14.604;2023-02-10T08:10:38;48.05;;;31.00;;
66425;SDS011;53237;46.158;14.604;2023-02-10T08:13:04;72.32;;;40.35;;
66425;SDS011;53237;46.158;14.604;2023-02-10T08:15:30;49.33;;;30.73;;
66425;SDS011;53237;46.158;14.604;2023-02-10T08:17:58;59.47;;;35.22;;
66425;SDS011;53237;46.158;14.604;2023-02-10T08:20:24;64.28;;;36.20;;
66425;SDS011;53237;46.158;14.604;2023-02-10T08:22:56;51.65;;;31.35;;
66425;SDS011;53237;46.158;14.604;2023-02-10T08:25:23;48.20;;;31.88;;
66425;SDS011;53237;46.158;14.604;2023-02-10T08:27:49;51.33;;;31.48;;
66425;SDS011;53237;46.158;14.604;2023-02-10T08:30:15;48.35;;;30.27;;
66425;SDS011;53237;46.158;14.604;2023-02-10T08:32:41;95.15;;;47.38;;
66425;SDS011;53237;46.158;14.604;2023-02-10T08:35:07;52.97;;;31.73;;
66425;SDS011;53237;46.158;14.604;2023-02-10T08:37:33;51.47;;;31.88;;
66425;SDS011;53237;46.158;14.604;2023-02-10T08:39:59;45.53;;;29.42;;
66425;SDS011;53237;46.158;14.604;2023-02-10T08:42:25;48.60;;;29.77;;
66425;SDS011;53237;46.158;14.604;2023-02-10T08:44:51;44.45;;;28.60;;
66425;SDS011;53237;46.158;14.604;2023-02-10T08:47:17;44.95;;;28.70;;
66425;SDS011;53237;46.158;14.604;2023-02-10T08:49:43;43.00;;;28.42;;
66425;SDS011;53237;46.158;14.604;2023-02-10T08:52:09;41.05;;;28.00;;
66425;SDS011;53237;46.158;14.604;2023-02-10T08:54:35;45.00;;;30.73;;
66425;SDS011;53237;46.158;14.604;2023-02-10T08:57:01;40.25;;;27.67;;
66425;SDS011;53237;46.158;14.604;2023-02-10T08:59:28;40.72;;;26.92;;
66425;SDS011;53237;46.158;14.604;2023-02-10T09:01:54;38.67;;;26.10;;
66425;SDS011;53237;46.158;14.604;2023-02-10T09:04:20;39.67;;;26.95;;
66425;SDS011;53237;46.158;14.604;2023-02-10T09:06:46;41.22;;;26.52;;
66425;SDS011;53237;46.158;14.604;2023-02-10T09:09:14;37.85;;;25.13;;
66425;SDS011;53237;46.158;14.604;2023-02-10T09:11:40;33.83;;;24.30;;
66425;SDS011;53237;46.158;14.604;2023-02-10T09:14:07;35.83;;;25.70;;
66425;SDS011;53237;46.158;14.604;2023-02-10T09:16:33;33.95;;;25.40;;
66425;SDS011;53237;46.158;14.604;2023-02-10T09:18:59;34.05;;;25.23;;
66425;SDS011;53237;46.158;14.604;2023-02-10T09:21:25;32.92;;;24.77;;
66425;SDS011;53237;46.158;14.604;2023-02-10T09:23:51;31.75;;;23.88;;
66425;SDS011;53237;46.158;14.604;2023-02-10T09:26:17;34.40;;;24.30;;
66425;SDS011;53237;46.158;14.604;2023-02-10T09:28:43;31.35;;;23.50;;
66425;SDS011;53237;46.158;14.604;2023-02-10T09:31:11;30.52;;;24.38;;
66425;SDS011;53237;46.158;14.604;2023-02-10T09:33:37;30.05;;;23.20;;
66425;SDS011;53237;46.158;14.604;2023-02-10T09:36:04;30.70;;;24.98;;
66425;SDS011;53237;46.158;14.604;2023-02-10T09:38:30;40.50;;;31.25;;
66425;SDS011;53237;46.158;14.604;2023-02-10T09:44:02;29.02;;;23.83;;
66425;SDS011;53237;46.158;14.604;2023-02-10T09:49:15;31.73;;;25.52;;
66425;SDS011;53237;46.158;14.604;2023-02-10T09:51:59;31.38;;;25.63;;
66425;SDS011;53237;46.158;14.604;2023-02-10T09:54:28;34.78;;;24.70;;
66425;SDS011;53237;46.158;14.604;2023-02-10T09:57:00;31.70;;;25.05;;
66425;SDS011;53237;46.158;14.604;2023-02-10T09:59:27;33.00;;;25.98;;
66425;SDS011;53237;46.158;14.604;2023-02-10T10:01:55;30.88;;;24.88;;
66425;SDS011;53237;46.158;14.604;2023-02-10T10:04:23;33.17;;;25.52;;
66425;SDS011;53237;46.158;14.604;2023-02-10T10:06:55;33.95;;;25.40;;
66425;SDS011;53237;46.158;14.604;2023-02-10T10:09:32;34.63;;;26.73;;
66425;SDS011;53237;46.158;14.604;2023-02-10T10:12:01;32.83;;;24.95;;
66425;SDS011;53237;46.158;14.604;2023-02-10T10:19:32;29.88;;;23.35;;
66425;SDS011;53237;46.158;14.604;2023-02-10T10:24:38;31.88;;;23.95;;
66425;SDS011;53237;46.158;14.604;2023-02-10T10:32:14;33.78;;;25.20;;
66425;SDS011;53237;46.158;14.604;2023-02-10T10:34:41;37.42;;;29.63;;
66425;SDS011;53237;46.158;14.604;2023-02-10T10:37:13;36.92;;;27.17;;
66425;SDS011;53237;46.158;14.604;2023-02-10T10:39:42;32.38;;;24.13;;
66425;SDS011;53237;46.158;14.604;2023-02-10T10:42:28;33.55;;;24.98;;
66425;SDS011;53237;46.158;14.604;2023-02-10T10:44:59;31.73;;;24.75;;
66425;SDS011;53237;46.158;14.604;2023-02-10T10:47:31;32.53;;;24.02;;
66425;SDS011;53237;46.158;14.604;2023-02-10T10:50:00;28.25;;;22.17;;
66425;SDS011;53237;46.158;14.604;2023-02-10T10:52:30;26.60;;;21.05;;
66425;SDS011;53237;46.158;14.604;2023-02-10T10:54:58;26.75;;;21.63;;
66425;SDS011;53237;46.158;14.604;2023-02-10T10:57:25;27.15;;;21.42;;
66425;SDS011;53237;46.158;14.604;2023-02-10T10:59:56;30.27;;;22.92;;
66425;SDS011;53237;46.158;14.604;2023-02-10T11:02:24;24.40;;;19.60;;
66425;SDS011;53237;46.158;14.604;2023-02-10T11:05:09;26.55;;;20.58;;
66425;SDS011;53237;46.158;14.604;2023-02-10T11:07:37;23.80;;;18.80;;
66425;SDS011;53237;46.158;14.604;2023-02-10T11:10:04;23.13;;;18.85;;
66425;SDS011;53237;46.158;14.604;2023-02-10T11:12:34;24.58;;;19.33;;
66425;SDS011;53237;46.158;14.604;2023-02-10T11:15:26;24.00;;;18.73;;
66425;SDS011;53237;46.158;14.604;2023-02-10T11:17:48;28.40;;;20.08;;
66425;SDS011;53237;46.158;14.604;2023-02-10T11:22:42;23.70;;;18.33;;
66425;SDS011;53237;46.158;14.604;2023-02-10T11:27:50;21.80;;;17.85;;
66425;SDS011;53237;46.158;14.604;2023-02-10T11:30:23;25.23;;;18.85;;
66425;SDS011;53237;46.158;14.604;2023-02-10T11:32:50;25.60;;;19.30;;
66425;SDS011;53237;46.158;14.604;2023-02-10T11:35:16;22.88;;;18.02;;
66425;SDS011;53237;46.158;14.604;2023-02-10T11:37:42;27.70;;;20.10;;
66425;SDS011;53237;46.158;14.604;2023-02-10T11:42:46;22.58;;;17.05;;
66425;SDS011;53237;46.158;14.604;2023-02-10T11:45:20;21.30;;;18.30;;
66425;SDS011;53237;46.158;14.604;2023-02-10T11:47:46;30.52;;;22.10;;
66425;SDS011;53237;46.158;14.604;2023-02-10T11:50:19;27.95;;;21.95;;
66425;SDS011;53237;46.158;14.604;2023-02-10T11:52:46;29.13;;;21.48;;
66425;SDS011;53237;46.158;14.604;2023-02-10T11:55:12;27.08;;;20.40;;
66425;SDS011;53237;46.158;14.604;2023-02-10T12:17:26;25.08;;;19.55;;
66425;SDS011;53237;46.158;14.604;2023-02-10T12:22:34;24.63;;;18.98;;
66425;SDS011;53237;46.158;14.604;2023-02-10T12:27:47;24.67;;;19.08;;
66425;SDS011;53237;46.158;14.604;2023-02-10T12:33:05;25.77;;;20.90;;
66425;SDS011;53237;46.158;14.604;2023-02-10T12:35:46;27.02;;;21.65;;
66425;SDS011;53237;46.158;14.604;2023-02-10T12:41:02;23.60;;;18.77;;
66425;SDS011;53237;46.158;14.604;2023-02-10T12:56:49;27.67;;;21.05;;
66425;SDS011;53237;46.158;14.604;2023-02-10T12:59:21;27.98;;;22.75;;
66425;SDS011;53237;46.158;14.604;2023-02-10T13:01:50;26.63;;;21.38;;
66425;SDS011;53237;46.158;14.604;2023-02-10T13:12:30;24.73;;;20.05;;
66425;SDS011;53237;46.158;14.604;2023-02-10T13:14:50;25.48;;;20.80;;
66425;SDS011;53237;46.158;14.604;2023-02-10T13:17:18;24.17;;;19.70;;
66425;SDS011;53237;46.158;14.604;2023-02-10T13:19:53;22.52;;;18.27;;
66425;SDS011;53237;46.158;14.604;2023-02-10T13:25:55;22.38;;;17.88;;
66425;SDS011;53237;46.158;14.604;2023-02-10T13:27:52;23.50;;;19.25;;
66425;SDS011;53237;46.158;14.604;2023-02-10T13:35:18;23.60;;;18.58;;
66425;SDS011;53237;46.158;14.604;2023-02-10T13:37:47;23.33;;;19.05;;
66425;SDS011;53237;46.158;14.604;2023-02-10T13:42:48;23.92;;;19.00;;
66425;SDS011;53237;46.158;14.604;2023-02-10T13:45:16;23.25;;;18.75;;
66425;SDS011;53237;46.158;14.604;2023-02-10T13:47:47;26.88;;;20.17;;
66425;SDS011;53237;46.158;14.604;2023-02-10T13:57:52;26.27;;;20.00;;
66425;SDS011;53237;46.158;14.604;2023-02-10T14:00:19;20.92;;;16.50;;
66425;SDS011;53237;46.158;14.604;2023-02-10T14:02:57;24.50;;;19.23;;
66425;SDS011;53237;46.158;14.604;2023-02-10T14:05:25;24.40;;;19.15;;
66425;SDS011;53237;46.158;14.604;2023-02-10T14:07:52;24.45;;;19.60;;
66425;SDS011;53237;46.158;14.604;2023-02-10T14:13:04;22.75;;;18.10;;
66425;SDS011;53237;46.158;14.604;2023-02-10T14:15:34;23.13;;;17.85;;
66425;SDS011;53237;46.158;14.604;2023-02-10T14:18:02;21.80;;;18.35;;
66425;SDS011;53237;46.158;14.604;2023-02-10T14:20:31;22.40;;;17.88;;
66425;SDS011;53237;46.158;14.604;2023-02-10T14:22:57;25.73;;;19.13;;
66425;SDS011;53237;46.158;14.604;2023-02-10T14:27:50;23.48;;;18.02;;
66425;SDS011;53237;46.158;14.604;2023-02-10T14:30:20;24.27;;;19.23;;
66425;SDS011;53237;46.158;14.604;2023-02-10T14:32:47;23.10;;;18.80;;
66425;SDS011;53237;46.158;14.604;2023-02-10T14:35:20;24.83;;;20.48;;
66425;SDS011;53237;46.158;14.604;2023-02-10T14:37:54;25.85;;;20.17;;
66425;SDS011;53237;46.158;14.604;2023-02-10T14:40:21;28.05;;;21.10;;
66425;SDS011;53237;46.158;14.604;2023-02-10T14:42:47;27.67;;;20.67;;
66425;SDS011;53237;46.158;14.604;2023-02-10T14:45:24;25.35;;;19.60;;
66425;SDS011;53237;46.158;14.604;2023-02-10T14:47:51;24.23;;;18.33;;
66425;SDS011;53237;46.158;14.604;2023-02-10T14:50:25;22.40;;;17.48;;
66425;SDS011;53237;46.158;14.604;2023-02-10T14:52:51;27.85;;;20.45;;
66425;SDS011;53237;46.158;14.604;2023-02-10T14:55:36;23.85;;;19.73;;
66425;SDS011;53237;46.158;14.604;2023-02-10T14:58:11;24.27;;;19.73;;
66425;SDS011;53237;46.158;14.604;2023-02-10T15:00:38;23.35;;;18.98;;
66425;SDS011;53237;46.158;14.604;2023-02-10T15:03:05;24.38;;;19.20;;
66425;SDS011;53237;46.158;14.604;2023-02-10T15:05:38;26.10;;;19.88;;
66425;SDS011;53237;46.158;14.604;2023-02-10T15:08:06;24.38;;;18.38;;
66425;SDS011;53237;46.158;14.604;2023-02-10T15:10:34;29.70;;;24.13;;
66425;SDS011;53237;46.158;14.604;2023-02-10T15:13:00;43.03;;;30.88;;
66425;SDS011;53237;46.158;14.604;2023-02-10T15:15:41;54.65;;;35.50;;
66425;SDS011;53237;46.158;14.604;2023-02-10T15:20:35;33.13;;;24.75;;
66425;SDS011;53237;46.158;14.604;2023-02-10T15:35:34;31.95;;;25.27;;
66425;SDS011;53237;46.158;14.604;2023-02-10T15:38:00;26.00;;;21.52;;
66425;SDS011;53237;46.158;14.604;2023-02-10T15:40:29;33.15;;;29.40;;
66425;SDS011;53237;46.158;14.604;2023-02-10T15:42:56;36.53;;;25.52;;
66425;SDS011;53237;46.158;14.604;2023-02-10T15:45:22;36.58;;;23.77;;
66425;SDS011;53237;46.158;14.604;2023-02-10T15:48:01;45.05;;;27.13;;
66425;SDS011;53237;46.158;14.604;2023-02-10T15:50:31;54.53;;;33.20;;
66425;SDS011;53237;46.158;14.604;2023-02-10T15:52:57;60.00;;;35.22;;
66425;SDS011;53237;46.158;14.604;2023-02-10T15:55:26;36.40;;;25.13;;
66425;SDS011;53237;46.158;14.604;2023-02-10T15:57:53;37.45;;;25.17;;
66425;SDS011;53237;46.158;14.604;2023-02-10T16:00:21;37.13;;;28.88;;
66425;SDS011;53237;46.158;14.604;2023-02-10T16:02:48;38.47;;;29.73;;
66425;SDS011;53237;46.158;14.604;2023-02-10T16:05:14;33.78;;;28.10;;
66425;SDS011;53237;46.158;14.604;2023-02-10T16:07:41;57.25;;;39.95;;
66425;SDS011;53237;46.158;14.604;2023-02-10T16:10:26;52.40;;;38.20;;
66425;SDS011;53237;46.158;14.604;2023-02-10T16:12:52;62.97;;;45.60;;
66425;SDS011;53237;46.158;14.604;2023-02-10T16:15:19;42.78;;;33.40;;
66425;SDS011;53237;46.158;14.604;2023-02-10T16:17:46;43.50;;;31.35;;
66425;SDS011;53237;46.158;14.604;2023-02-10T16:20:14;49.33;;;39.10;;
66425;SDS011;53237;46.158;14.604;2023-02-10T16:22:40;42.67;;;33.03;;
66425;SDS011;53237;46.158;14.604;2023-02-10T16:25:07;55.22;;;38.78;;
66425;SDS011;53237;46.158;14.604;2023-02-10T16:27:33;39.85;;;30.48;;
66425;SDS011;53237;46.158;14.604;2023-02-10T16:29:59;36.80;;;26.73;;
66425;SDS011;53237;46.158;14.604;2023-02-10T16:32:25;34.25;;;25.27;;
66425;SDS011;53237;46.158;14.604;2023-02-10T16:34:51;33.30;;;25.70;;
66425;SDS011;53237;46.158;14.604;2023-02-10T16:37:17;38.72;;;31.13;;
66425;SDS011;53237;46.158;14.604;2023-02-10T16:39:44;36.67;;;27.60;;
66425;SDS011;53237;46.158;14.604;2023-02-10T16:42:10;34.05;;;26.42;;
66425;SDS011;53237;46.158;14.604;2023-02-10T16:44:36;58.95;;;40.50;;